sensor_id;sensor_type;location;lat;lon;timestamp;pressure;altitude;pressure_sealevel;temperature;humidity
57572;BME280;44459;43.522;24.470;2022-11-25T00:01:55;99960.34;;;6.97;82.75
57572;BME280;44459;43.522;24.470;2022-11-25T00:04:21;99957.75;;;6.99;82.59
57572;BME280;44459;43.522;24.470;2022-11-25T00:06:46;99976.16;;;7.00;82.82
57572;BME280;44459;43.522;24.470;2022-11-25T00:09:11;99973.47;;;6.97;82.84
57572;BME280;44459;43.522;24.470;2022-11-25T00:11:39;99974.28;;;6.95;83.44
57572;BME280;44459;43.522;24.470;2022-11-25T00:14:06;99976.00;;;6.93;83.30
57572;BME280;44459;43.522;24.470;2022-11-25T00:16:31;99974.25;;;6.92;83.18
57572;BME280;44459;43.522;24.470;2022-11-25T00:18:57;99975.03;;;6.86;83.14
57572;BME280;44459;43.522;24.470;2022-11-25T00:21:25;99982.06;;;6.89;83.50
57572;BME280;44459;43.522;24.470;2022-11-25T00:23:52;99973.16;;;6.81;83.79
57572;BME280;44459;43.522;24.470;2022-11-25T00:26:19;99974.91;;;6.79;84.19
57572;BME280;44459;43.522;24.470;2022-11-25T00:28:46;99979.28;;;6.80;84.28
57572;BME280;44459;43.522;24.470;2022-11-25T00:31:17;99976.69;;;6.81;84.19
57572;BME280;44459;43.522;24.470;2022-11-25T00:33:43;99985.44;;;6.80;84.41
57572;BME280;44459;43.522;24.470;2022-11-25T00:38:45;99981.00;;;6.78;85.15
57572;BME280;44459;43.522;24.470;2022-11-25T00:41:10;99981.78;;;6.74;85.25
57572;BME280;44459;43.522;24.470;2022-11-25T00:43:54;99980.00;;;6.71;85.51
57572;BME280;44459;43.522;24.470;2022-11-25T00:46:39;99974.81;;;6.73;85.22
57572;BME280;44459;43.522;24.470;2022-11-25T00:49:04;99985.31;;;6.74;85.26
57572;BME280;44459;43.522;24.470;2022-11-25T00:51:30;99981.00;;;6.78;85.16
57572;BME280;44459;43.522;24.470;2022-11-25T00:53:55;99994.09;;;6.76;85.38
57572;BME280;44459;43.522;24.470;2022-11-25T00:56:20;99987.97;;;6.76;85.77
57572;BME280;44459;43.522;24.470;2022-11-25T00:58:47;99987.88;;;6.71;86.02
57572;BME280;44459;43.522;24.470;2022-11-25T01:01:13;99993.03;;;6.67;86.47
57572;BME280;44459;43.522;24.470;2022-11-25T01:03:39;99988.75;;;6.72;86.23
57572;BME280;44459;43.522;24.470;2022-11-25T01:06:08;99993.13;;;6.71;86.10
57572;BME280;44459;43.522;24.470;2022-11-25T01:08:35;99990.41;;;6.67;86.63
57572;BME280;44459;43.522;24.470;2022-11-25T01:11:04;99985.19;;;6.68;86.53
57572;BME280;44459;43.522;24.470;2022-11-25T01:13:30;100004.41;;;6.67;86.49
57572;BME280;44459;43.522;24.470;2022-11-25T01:15:56;99998.28;;;6.65;86.72
57572;BME280;44459;43.522;24.470;2022-11-25T01:18:21;99996.59;;;6.69;86.83
57572;BME280;44459;43.522;24.470;2022-11-25T01:20:47;99992.97;;;6.64;87.16
57572;BME280;44459;43.522;24.470;2022-11-25T01:23:12;99993.03;;;6.67;86.93
57572;BME280;44459;43.522;24.470;2022-11-25T01:25:38;99997.41;;;6.66;87.11
57572;BME280;44459;43.522;24.470;2022-11-25T01:28:04;99992.19;;;6.66;87.37
57572;BME280;44459;43.522;24.470;2022-11-25T01:30:30;99991.28;;;6.67;87.37
57572;BME280;44459;43.522;24.470;2022-11-25T01:32:56;99982.50;;;6.64;87.60
57572;BME280;44459;43.522;24.470;2022-11-25T01:35:21;99981.69;;;6.68;87.79
57572;BME280;44459;43.522;24.470;2022-11-25T01:37:47;99989.50;;;6.65;87.79
57572;BME280;44459;43.522;24.470;2022-11-25T01:40:12;99979.06;;;6.68;87.57
57572;BME280;44459;43.522;24.470;2022-11-25T01:42:45;99977.34;;;6.68;87.52
57572;BME280;44459;43.522;24.470;2022-11-25T01:47:49;99976.50;;;6.69;87.78
57572;BME280;44459;43.522;24.470;2022-11-25T01:50:17;99977.25;;;6.64;87.91
57572;BME280;44459;43.522;24.470;2022-11-25T01:52:45;99982.59;;;6.68;88.04
57572;BME280;44459;43.522;24.470;2022-11-25T01:55:17;99980.78;;;6.66;87.87
57572;BME280;44459;43.522;24.470;2022-11-25T01:57:52;99983.31;;;6.61;88.30
57572;BME280;44459;43.522;24.470;2022-11-25T02:00:20;99988.56;;;6.61;88.11
57572;BME280;44459;43.522;24.470;2022-11-25T02:02:48;99985.91;;;6.59;87.72
57572;BME280;44459;43.522;24.470;2022-11-25T02:05:17;99981.50;;;6.55;87.44
57572;BME280;44459;43.522;24.470;2022-11-25T02:07:45;99986.75;;;6.57;87.76
57572;BME280;44459;43.522;24.470;2022-11-25T02:10:18;99993.78;;;6.59;87.57
57572;BME280;44459;43.522;24.470;2022-11-25T02:12:45;99997.22;;;6.55;87.82
57572;BME280;44459;43.522;24.470;2022-11-25T02:15:12;99997.19;;;6.52;87.80
57572;BME280;44459;43.522;24.470;2022-11-25T02:17:38;100003.16;;;6.47;88.22
57572;BME280;44459;43.522;24.470;2022-11-25T02:20:07;100003.22;;;6.48;88.40
57572;BME280;44459;43.522;24.470;2022-11-25T02:25:19;100003.97;;;6.43;88.52
57572;BME280;44459;43.522;24.470;2022-11-25T02:27:49;100014.41;;;6.40;88.80
57572;BME280;44459;43.522;24.470;2022-11-25T02:30:16;100009.16;;;6.40;88.52
57572;BME280;44459;43.522;24.470;2022-11-25T02:32:46;100008.41;;;6.45;87.96
57572;BME280;44459;43.522;24.470;2022-11-25T02:35:32;100014.59;;;6.49;87.60
57572;BME280;44459;43.522;24.470;2022-11-25T02:40:27;100012.91;;;6.54;87.57
57572;BME280;44459;43.522;24.470;2022-11-25T02:42:55;100011.16;;;6.53;87.99
57572;BME280;44459;43.522;24.470;2022-11-25T02:48:23;100019.75;;;6.46;88.72
57572;BME280;44459;43.522;24.470;2022-11-25T02:50:49;100013.50;;;6.38;89.11
57572;BME280;44459;43.522;24.470;2022-11-25T02:53:15;100014.34;;;6.37;89.32
57572;BME280;44459;43.522;24.470;2022-11-25T02:55:41;100010.72;;;6.32;89.86
57572;BME280;44459;43.522;24.470;2022-11-25T02:58:06;100014.28;;;6.34;90.00
57572;BME280;44459;43.522;24.470;2022-11-25T03:00:32;100023.00;;;6.33;89.99
57572;BME280;44459;43.522;24.470;2022-11-25T03:02:57;100015.97;;;6.32;90.25
57572;BME280;44459;43.522;24.470;2022-11-25T03:05:23;100018.63;;;6.33;90.03
57572;BME280;44459;43.522;24.470;2022-11-25T03:07:49;100016.91;;;6.34;90.05
57572;BME280;44459;43.522;24.470;2022-11-25T03:10:14;100017.78;;;6.34;90.19
57572;BME280;44459;43.522;24.470;2022-11-25T03:12:39;100022.09;;;6.31;90.19
57572;BME280;44459;43.522;24.470;2022-11-25T03:15:05;100019.53;;;6.35;90.21
57572;BME280;44459;43.522;24.470;2022-11-25T03:17:31;100026.50;;;6.33;90.21
57572;BME280;44459;43.522;24.470;2022-11-25T03:19:57;100024.66;;;6.28;90.57
57572;BME280;44459;43.522;24.470;2022-11-25T03:22:23;100018.47;;;6.26;90.56
57572;BME280;44459;43.522;24.470;2022-11-25T03:24:48;100029.00;;;6.27;90.84
57572;BME280;44459;43.522;24.470;2022-11-25T03:27:14;100020.28;;;6.28;90.90
57572;BME280;44459;43.522;24.470;2022-11-25T03:29:39;100027.34;;;6.31;91.02
57572;BME280;44459;43.522;24.470;2022-11-25T03:32:05;100034.22;;;6.26;91.03
57572;BME280;44459;43.522;24.470;2022-11-25T03:34:30;100030.69;;;6.25;91.20
57572;BME280;44459;43.522;24.470;2022-11-25T03:36:56;100024.63;;;6.26;91.21
57572;BME280;44459;43.522;24.470;2022-11-25T03:39:21;100036.00;;;6.27;91.29
57572;BME280;44459;43.522;24.470;2022-11-25T03:41:48;100035.88;;;6.21;91.15
57572;BME280;44459;43.522;24.470;2022-11-25T03:44:13;100033.22;;;6.19;90.97
57572;BME280;44459;43.522;24.470;2022-11-25T03:46:39;100045.41;;;6.19;91.24
57572;BME280;44459;43.522;24.470;2022-11-25T03:49:04;100037.56;;;6.19;91.18
57572;BME280;44459;43.522;24.470;2022-11-25T03:51:29;100050.72;;;6.20;91.04
57572;BME280;44459;43.522;24.470;2022-11-25T03:53:55;100048.09;;;6.20;91.04
57572;BME280;44459;43.522;24.470;2022-11-25T03:56:21;100054.22;;;6.21;90.77
57572;BME280;44459;43.522;24.470;2022-11-25T03:58:46;100059.53;;;6.24;90.14
57572;BME280;44459;43.522;24.470;2022-11-25T04:01:11;100061.22;;;6.22;90.43
57572;BME280;44459;43.522;24.470;2022-11-25T04:03:37;100064.75;;;6.24;90.50
57572;BME280;44459;43.522;24.470;2022-11-25T04:06:03;100062.88;;;6.17;90.29
57572;BME280;44459;43.522;24.470;2022-11-25T04:08:28;100068.88;;;6.13;90.70
57572;BME280;44459;43.522;24.470;2022-11-25T04:10:54;100069.72;;;6.12;91.11
57572;BME280;44459;43.522;24.470;2022-11-25T04:13:20;100066.09;;;6.05;91.22
57572;BME280;44459;43.522;24.470;2022-11-25T04:15:46;100074.00;;;6.06;91.23
57572;BME280;44459;43.522;24.470;2022-11-25T04:18:13;100072.94;;;5.98;91.40
57572;BME280;44459;43.522;24.470;2022-11-25T04:20:38;100077.41;;;6.02;91.55
57572;BME280;44459;43.522;24.470;2022-11-25T04:23:04;100072.84;;;5.94;91.81
57572;BME280;44459;43.522;24.470;2022-11-25T04:25:31;100074.50;;;5.90;92.21
57572;BME280;44459;43.522;24.470;2022-11-25T04:27:56;100077.03;;;5.86;92.18
57572;BME280;44459;43.522;24.470;2022-11-25T04:30:22;100079.59;;;5.84;92.44
57572;BME280;44459;43.522;24.470;2022-11-25T04:32:47;100083.81;;;5.78;92.17
57572;BME280;44459;43.522;24.470;2022-11-25T04:35:13;100092.63;;;5.81;92.29
57572;BME280;44459;43.522;24.470;2022-11-25T04:37:38;100095.16;;;5.78;92.39
57572;BME280;44459;43.522;24.470;2022-11-25T04:40:04;100099.53;;;5.78;92.24
57572;BME280;44459;43.522;24.470;2022-11-25T04:42:30;100102.09;;;5.76;92.67
57572;BME280;44459;43.522;24.470;2022-11-25T04:44:55;100102.97;;;5.77;92.62
57572;BME280;44459;43.522;24.470;2022-11-25T04:47:21;100105.56;;;5.75;92.72
57572;BME280;44459;43.522;24.470;2022-11-25T04:49:47;100118.56;;;5.71;92.88
57572;BME280;44459;43.522;24.470;2022-11-25T04:52:12;100122.94;;;5.72;93.17
57572;BME280;44459;43.522;24.470;2022-11-25T04:54:38;100115.88;;;5.68;93.23
57572;BME280;44459;43.522;24.470;2022-11-25T04:57:03;100109.81;;;5.70;93.48
57572;BME280;44459;43.522;24.470;2022-11-25T04:59:29;100121.94;;;5.65;93.61
57572;BME280;44459;43.522;24.470;2022-11-25T05:02:04;100122.84;;;5.67;93.61
57572;BME280;44459;43.522;24.470;2022-11-25T05:04:30;100124.63;;;5.70;93.91
57572;BME280;44459;43.522;24.470;2022-11-25T05:06:55;100122.84;;;5.67;93.75
57572;BME280;44459;43.522;24.470;2022-11-25T05:09:21;100127.16;;;5.65;93.94
57572;BME280;44459;43.522;24.470;2022-11-25T05:11:46;100138.53;;;5.66;94.01
57572;BME280;44459;43.522;24.470;2022-11-25T05:14:12;100144.59;;;5.65;94.17
57572;BME280;44459;43.522;24.470;2022-11-25T05:16:37;100136.69;;;5.62;94.30
57572;BME280;44459;43.522;24.470;2022-11-25T05:19:02;100149.84;;;5.65;94.21
57572;BME280;44459;43.522;24.470;2022-11-25T05:21:28;100153.28;;;5.62;93.89
57572;BME280;44459;43.522;24.470;2022-11-25T05:23:54;100154.97;;;5.60;93.99
57572;BME280;44459;43.522;24.470;2022-11-25T05:26:19;100166.44;;;5.65;93.57
57572;BME280;44459;43.522;24.470;2022-11-25T05:28:45;100164.53;;;5.59;93.63
57572;BME280;44459;43.522;24.470;2022-11-25T05:31:11;100166.38;;;5.62;93.03
57572;BME280;44459;43.522;24.470;2022-11-25T05:33:36;100173.34;;;5.63;92.83
57572;BME280;44459;43.522;24.470;2022-11-25T05:36:03;100175.06;;;5.61;92.94
57572;BME280;44459;43.522;24.470;2022-11-25T05:38:29;100177.69;;;5.63;93.10
57572;BME280;44459;43.522;24.470;2022-11-25T05:41:05;100173.34;;;5.63;93.27
57572;BME280;44459;43.522;24.470;2022-11-25T05:43:31;100182.16;;;5.65;93.30
57572;BME280;44459;43.522;24.470;2022-11-25T05:45:57;100178.66;;;5.66;93.12
57572;BME280;44459;43.522;24.470;2022-11-25T05:48:22;100183.13;;;5.69;92.96
57572;BME280;44459;43.522;24.470;2022-11-25T05:50:48;100188.16;;;5.63;93.28
57572;BME280;44459;43.522;24.470;2022-11-25T05:53:13;100193.53;;;5.67;93.04
57572;BME280;44459;43.522;24.470;2022-11-25T05:55:42;100198.75;;;5.66;92.73
57572;BME280;44459;43.522;24.470;2022-11-25T05:58:07;100217.09;;;5.66;92.54
57572;BME280;44459;43.522;24.470;2022-11-25T06:00:32;100210.91;;;5.64;93.08
57572;BME280;44459;43.522;24.470;2022-11-25T06:02:58;100217.19;;;5.70;92.48
57572;BME280;44459;43.522;24.470;2022-11-25T06:05:23;100218.03;;;5.69;92.62
57572;BME280;44459;43.522;24.470;2022-11-25T06:07:49;100220.66;;;5.69;92.81
57572;BME280;44459;43.522;24.470;2022-11-25T06:10:16;100226.03;;;5.75;92.45
57572;BME280;44459;43.522;24.470;2022-11-25T06:12:42;100229.56;;;5.77;92.34
57572;BME280;44459;43.522;24.470;2022-11-25T06:15:08;100234.88;;;5.79;92.46
57572;BME280;44459;43.522;24.470;2022-11-25T06:17:33;100241.00;;;5.81;91.71
57572;BME280;44459;43.522;24.470;2022-11-25T06:19:59;100247.97;;;5.80;91.81
57572;BME280;44459;43.522;24.470;2022-11-25T06:22:24;100248.06;;;5.83;91.92
57572;BME280;44459;43.522;24.470;2022-11-25T06:24:49;100250.66;;;5.83;91.76
57572;BME280;44459;43.522;24.470;2022-11-25T06:27:15;100251.72;;;5.88;91.76
57572;BME280;44459;43.522;24.470;2022-11-25T06:29:40;100260.53;;;5.92;91.40
57572;BME280;44459;43.522;24.470;2022-11-25T06:32:06;100265.91;;;5.96;91.32
57572;BME280;44459;43.522;24.470;2022-11-25T06:34:31;100265.03;;;5.97;91.52
57572;BME280;44459;43.522;24.470;2022-11-25T06:36:56;100266.88;;;6.01;91.24
57572;BME280;44459;43.522;24.470;2022-11-25T06:39:22;100268.63;;;6.01;90.98
57572;BME280;44459;43.522;24.470;2022-11-25T06:41:47;100275.75;;;6.06;91.11
57572;BME280;44459;43.522;24.470;2022-11-25T06:44:13;100281.00;;;6.06;90.83
57572;BME280;44459;43.522;24.470;2022-11-25T06:46:39;100276.78;;;6.13;90.72
57572;BME280;44459;43.522;24.470;2022-11-25T06:49:05;100279.44;;;6.15;90.26
57572;BME280;44459;43.522;24.470;2022-11-25T06:51:31;100280.50;;;6.21;90.35
57572;BME280;44459;43.522;24.470;2022-11-25T06:53:57;100283.13;;;6.23;90.02
57572;BME280;44459;43.522;24.470;2022-11-25T06:56:25;100285.91;;;6.29;89.68
57572;BME280;44459;43.522;24.470;2022-11-25T06:58:52;100284.16;;;6.28;89.54
57572;BME280;44459;43.522;24.470;2022-11-25T07:01:20;100297.22;;;6.26;88.91
57572;BME280;44459;43.522;24.470;2022-11-25T07:03:48;100282.44;;;6.30;89.14
57572;BME280;44459;43.522;24.470;2022-11-25T07:06:15;100293.75;;;6.29;89.17
57572;BME280;44459;43.522;24.470;2022-11-25T07:08:41;100288.53;;;6.29;88.89
57572;BME280;44459;43.522;24.470;2022-11-25T07:11:15;100288.59;;;6.32;88.87
57572;BME280;44459;43.522;24.470;2022-11-25T07:13:40;100288.72;;;6.36;88.78
57572;BME280;44459;43.522;24.470;2022-11-25T07:16:06;100279.13;;;6.37;88.47
57572;BME280;44459;43.522;24.470;2022-11-25T07:18:33;100287.13;;;6.43;88.21
57572;BME280;44459;43.522;24.470;2022-11-25T07:21:08;100288.97;;;6.47;87.52
57572;BME280;44459;43.522;24.470;2022-11-25T07:23:34;100296.91;;;6.50;87.60
57572;BME280;44459;43.522;24.470;2022-11-25T07:26:06;100298.72;;;6.52;87.65
57572;BME280;44459;43.522;24.470;2022-11-25T07:28:32;100305.78;;;6.56;87.43
57572;BME280;44459;43.522;24.470;2022-11-25T07:33:41;100306.75;;;6.60;87.16
57572;BME280;44459;43.522;24.470;2022-11-25T07:36:08;100314.78;;;6.66;86.71
57572;BME280;44459;43.522;24.470;2022-11-25T07:38:35;100319.09;;;6.64;86.89
57572;BME280;44459;43.522;24.470;2022-11-25T07:41:08;100317.22;;;6.60;86.33
57572;BME280;44459;43.522;24.470;2022-11-25T07:43:35;100321.69;;;6.64;85.58
57572;BME280;44459;43.522;24.470;2022-11-25T07:46:36;100319.97;;;6.65;85.83
57572;BME280;44459;43.522;24.470;2022-11-25T07:49:05;100331.47;;;6.70;84.67
57572;BME280;44459;43.522;24.470;2022-11-25T07:51:34;100339.53;;;6.79;84.67
57572;BME280;44459;43.522;24.470;2022-11-25T07:54:01;100342.22;;;6.82;84.28
57572;BME280;44459;43.522;24.470;2022-11-25T07:56:28;100344.78;;;6.79;84.24
57572;BME280;44459;43.522;24.470;2022-11-25T07:58:55;100334.34;;;6.80;83.43
57572;BME280;44459;43.522;24.470;2022-11-25T08:01:20;100342.28;;;6.83;83.22
57572;BME280;44459;43.522;24.470;2022-11-25T08:03:47;100354.53;;;6.84;83.20
57572;BME280;44459;43.522;24.470;2022-11-25T08:06:16;100353.53;;;6.79;83.29
57572;BME280;44459;43.522;24.470;2022-11-25T08:08:43;100362.31;;;6.80;83.16
57572;BME280;44459;43.522;24.470;2022-11-25T08:11:20;100370.19;;;6.80;83.21
57572;BME280;44459;43.522;24.470;2022-11-25T08:13:46;100362.38;;;6.84;83.58
57572;BME280;44459;43.522;24.470;2022-11-25T08:16:14;100371.28;;;6.91;82.94
57572;BME280;44459;43.522;24.470;2022-11-25T08:18:39;100381.06;;;6.98;82.49
57572;BME280;44459;43.522;24.470;2022-11-25T08:21:07;100381.06;;;6.96;81.90
57572;BME280;44459;43.522;24.470;2022-11-25T08:23:35;100378.56;;;7.02;82.69
57572;BME280;44459;43.522;24.470;2022-11-25T08:26:10;100385.59;;;7.05;82.87
57572;BME280;44459;43.522;24.470;2022-11-25T08:28:37;100397.31;;;7.19;82.50
57572;BME280;44459;43.522;24.470;2022-11-25T08:31:14;100398.25;;;7.21;82.32
57572;BME280;44459;43.522;24.470;2022-11-25T08:33:41;100394.72;;;7.21;81.16
57572;BME280;44459;43.522;24.470;2022-11-25T08:36:07;100401.16;;;7.35;81.61
57572;BME280;44459;43.522;24.470;2022-11-25T08:38:33;100392.63;;;7.46;81.56
57572;BME280;44459;43.522;24.470;2022-11-25T08:40:59;100401.72;;;7.62;81.53
57572;BME280;44459;43.522;24.470;2022-11-25T08:43:24;100401.00;;;7.69;80.51
57572;BME280;44459;43.522;24.470;2022-11-25T08:45:50;100412.78;;;7.89;80.19
57572;BME280;44459;43.522;24.470;2022-11-25T08:48:17;100406.91;;;8.01;78.84
57572;BME280;44459;43.522;24.470;2022-11-25T08:50:54;100408.66;;;8.02;78.85
57572;BME280;44459;43.522;24.470;2022-11-25T08:53:20;100408.94;;;8.17;78.89
57572;BME280;44459;43.522;24.470;2022-11-25T08:55:46;100408.84;;;8.11;78.13
57572;BME280;44459;43.522;24.470;2022-11-25T08:58:11;100399.81;;;7.98;77.99
57572;BME280;44459;43.522;24.470;2022-11-25T09:00:39;100404.97;;;7.92;77.38
57572;BME280;44459;43.522;24.470;2022-11-25T09:03:05;100396.28;;;7.96;78.17
57572;BME280;44459;43.522;24.470;2022-11-25T09:05:31;100395.44;;;7.97;77.52
57572;BME280;44459;43.522;24.470;2022-11-25T09:08:04;100399.94;;;8.04;77.01
57572;BME280;44459;43.522;24.470;2022-11-25T09:10:31;100392.88;;;8.00;77.69
57572;BME280;44459;43.522;24.470;2022-11-25T09:12:56;100392.16;;;8.10;77.74
57572;BME280;44459;43.522;24.470;2022-11-25T09:15:22;100395.84;;;8.19;77.40
57572;BME280;44459;43.522;24.470;2022-11-25T09:17:48;100396.06;;;8.31;77.68
57572;BME280;44459;43.522;24.470;2022-11-25T09:20:13;100398.75;;;8.32;76.91
57572;BME280;44459;43.522;24.470;2022-11-25T09:22:39;100401.38;;;8.32;75.80
57572;BME280;44459;43.522;24.470;2022-11-25T09:25:04;100396.13;;;8.34;75.60
57572;BME280;44459;43.522;24.470;2022-11-25T09:27:31;100393.50;;;8.34;75.46
57572;BME280;44459;43.522;24.470;2022-11-25T09:29:56;100403.84;;;8.26;74.74
57572;BME280;44459;43.522;24.470;2022-11-25T09:32:21;100384.66;;;8.29;74.73
57572;BME280;44459;43.522;24.470;2022-11-25T09:34:47;100394.22;;;8.27;74.48
57572;BME280;44459;43.522;24.470;2022-11-25T09:37:12;100371.44;;;8.27;73.51
57572;BME280;44459;43.522;24.470;2022-11-25T09:39:39;100390.19;;;8.47;73.91
57572;BME280;44459;43.522;24.470;2022-11-25T09:45:21;100393.00;;;8.56;73.79
57572;BME280;44459;43.522;24.470;2022-11-25T09:48:26;100392.34;;;8.68;74.13
57572;BME280;44459;43.522;24.470;2022-11-25T09:51:20;100394.97;;;8.69;73.36
57572;BME280;44459;43.522;24.470;2022-11-25T09:56:42;100395.78;;;8.65;72.35
57572;BME280;44459;43.522;24.470;2022-11-25T09:59:19;100400.28;;;8.71;72.30
57572;BME280;44459;43.522;24.470;2022-11-25T10:01:56;100400.44;;;8.81;72.20
57572;BME280;44459;43.522;24.470;2022-11-25T10:04:34;100392.56;;;8.83;71.75
57572;BME280;44459;43.522;24.470;2022-11-25T10:07:03;100388.19;;;8.83;72.44
57572;BME280;44459;43.522;24.470;2022-11-25T10:09:33;100381.19;;;8.85;71.63
57572;BME280;44459;43.522;24.470;2022-11-25T10:12:05;100386.34;;;8.79;71.52
57572;BME280;44459;43.522;24.470;2022-11-25T10:14:44;100377.56;;;8.79;71.56
57572;BME280;44459;43.522;24.470;2022-11-25T10:20:11;100382.84;;;8.77;72.30
57572;BME280;44459;43.522;24.470;2022-11-25T10:22:43;100379.44;;;8.84;72.16
57572;BME280;44459;43.522;24.470;2022-11-25T10:30:21;100379.63;;;8.99;71.77
57572;BME280;44459;43.522;24.470;2022-11-25T10:32:52;100382.34;;;9.04;71.76
57572;BME280;44459;43.522;24.470;2022-11-25T10:35:25;100392.00;;;9.03;69.80
57572;BME280;44459;43.522;24.470;2022-11-25T10:37:53;100389.44;;;9.08;70.13
57572;BME280;44459;43.522;24.470;2022-11-25T10:40:21;100382.38;;;9.05;70.75
57572;BME280;44459;43.522;24.470;2022-11-25T10:42:47;100388.59;;;9.10;70.54
57572;BME280;44459;43.522;24.470;2022-11-25T10:45:12;100396.47;;;9.09;70.15
57572;BME280;44459;43.522;24.470;2022-11-25T10:48:00;100389.59;;;9.19;70.56
57572;BME280;44459;43.522;24.470;2022-11-25T10:53:25;100395.06;;;9.32;70.11
57572;BME280;44459;43.522;24.470;2022-11-25T10:56:03;100389.00;;;9.39;69.80
57572;BME280;44459;43.522;24.470;2022-11-25T10:58:34;100381.13;;;9.42;69.01
57572;BME280;44459;43.522;24.470;2022-11-25T11:03:33;100382.03;;;9.44;68.64
57572;BME280;44459;43.522;24.470;2022-11-25T11:05:59;100377.78;;;9.54;69.64
57572;BME280;44459;43.522;24.470;2022-11-25T11:08:59;100380.34;;;9.49;68.02
57572;BME280;44459;43.522;24.470;2022-11-25T11:11:21;100382.19;;;9.56;69.11
57572;BME280;44459;43.522;24.470;2022-11-25T11:13:48;100388.34;;;9.58;67.86
57572;BME280;44459;43.522;24.470;2022-11-25T11:16:22;100372.47;;;9.52;68.42
57572;BME280;44459;43.522;24.470;2022-11-25T11:18:49;100375.97;;;9.51;67.30
57572;BME280;44459;43.522;24.470;2022-11-25T11:21:36;100378.59;;;9.50;66.97
57572;BME280;44459;43.522;24.470;2022-11-25T11:24:22;100385.66;;;9.52;67.35
57572;BME280;44459;43.522;24.470;2022-11-25T11:27:04;100386.41;;;9.42;68.19
57572;BME280;44459;43.522;24.470;2022-11-25T11:29:30;100376.75;;;9.43;68.35
57572;BME280;44459;43.522;24.470;2022-11-25T11:32:04;100385.53;;;9.45;69.16
57572;BME280;44459;43.522;24.470;2022-11-25T11:37:46;100382.06;;;9.46;66.83
57572;BME280;44459;43.522;24.470;2022-11-25T11:48:53;100390.94;;;9.55;66.36
57572;BME280;44459;43.522;24.470;2022-11-25T11:56:55;100387.50;;;9.59;65.18
57572;BME280;44459;43.522;24.470;2022-11-25T12:02:48;100388.38;;;9.60;68.12
57572;BME280;44459;43.522;24.470;2022-11-25T12:05:18;100396.41;;;9.69;67.21
57572;BME280;44459;43.522;24.470;2022-11-25T12:10:47;100398.91;;;9.57;67.28
57572;BME280;44459;43.522;24.470;2022-11-25T12:24:24;100404.94;;;9.50;67.88
57572;BME280;44459;43.522;24.470;2022-11-25T12:29:49;100407.75;;;9.65;68.65
57572;BME280;44459;43.522;24.470;2022-11-25T12:35:04;100409.47;;;9.61;68.12
57572;BME280;44459;43.522;24.470;2022-11-25T12:38:04;100409.47;;;9.60;68.76
57572;BME280;44459;43.522;24.470;2022-11-25T12:40:46;100411.06;;;9.49;68.78
57572;BME280;44459;43.522;24.470;2022-11-25T12:48:48;100428.16;;;9.15;71.36
57572;BME280;44459;43.522;24.470;2022-11-25T12:51:49;100417.47;;;9.06;70.15
57572;BME280;44459;43.522;24.470;2022-11-25T12:54:20;100420.88;;;8.99;70.52
57572;BME280;44459;43.522;24.470;2022-11-25T12:56:55;100415.56;;;8.96;70.05
57572;BME280;44459;43.522;24.470;2022-11-25T12:59:33;100415.69;;;9.03;70.43
57572;BME280;44459;43.522;24.470;2022-11-25T13:15:54;100424.53;;;9.07;69.18
57572;BME280;44459;43.522;24.470;2022-11-25T13:18:26;100423.59;;;9.03;69.21
57572;BME280;44459;43.522;24.470;2022-11-25T13:20:54;100426.31;;;9.08;69.67
57572;BME280;44459;43.522;24.470;2022-11-25T13:23:26;100417.44;;;9.03;69.29
57572;BME280;44459;43.522;24.470;2022-11-25T13:28:38;100414.72;;;8.97;69.98
57572;BME280;44459;43.522;24.470;2022-11-25T13:31:31;100425.16;;;8.91;69.89
57572;BME280;44459;43.522;24.470;2022-11-25T13:34:05;100427.44;;;8.71;69.56
57572;BME280;44459;43.522;24.470;2022-11-25T13:36:52;100428.47;;;8.78;71.02
57572;BME280;44459;43.522;24.470;2022-11-25T13:39:34;100429.00;;;8.57;71.15
57572;BME280;44459;43.522;24.470;2022-11-25T13:42:21;100426.38;;;8.57;71.71
57572;BME280;44459;43.522;24.470;2022-11-25T13:44:56;100434.91;;;8.45;71.94
57572;BME280;44459;43.522;24.470;2022-11-25T13:47:34;100431.34;;;8.42;72.99
57572;BME280;44459;43.522;24.470;2022-11-25T13:50:04;100425.25;;;8.43;73.29
57572;BME280;44459;43.522;24.470;2022-11-25T13:52:37;100443.59;;;8.41;72.86
57572;BME280;44459;43.522;24.470;2022-11-25T13:55:52;100440.84;;;8.34;72.76
57572;BME280;44459;43.522;24.470;2022-11-25T14:09:00;100454.63;;;8.22;73.54
57572;BME280;44459;43.522;24.470;2022-11-25T14:14:26;100459.78;;;8.18;73.74
57572;BME280;44459;43.522;24.470;2022-11-25T14:19:45;100466.63;;;8.08;74.26
57572;BME280;44459;43.522;24.470;2022-11-25T14:22:27;100476.88;;;7.94;75.15
57572;BME280;44459;43.522;24.470;2022-11-25T14:25:20;100473.34;;;7.94;75.14
57572;BME280;44459;43.522;24.470;2022-11-25T14:27:50;100475.81;;;7.86;75.65
57572;BME280;44459;43.522;24.470;2022-11-25T14:30:16;100475.63;;;7.77;76.25
57572;BME280;44459;43.522;24.470;2022-11-25T14:32:54;100478.28;;;7.79;76.27
57572;BME280;44459;43.522;24.470;2022-11-25T14:35:27;100479.94;;;7.75;76.22
57572;BME280;44459;43.522;24.470;2022-11-25T14:38:04;100483.41;;;7.73;76.54
57572;BME280;44459;43.522;24.470;2022-11-25T14:40:50;100481.31;;;7.58;76.61
57572;BME280;44459;43.522;24.470;2022-11-25T14:43:22;100482.88;;;7.48;77.16
57572;BME280;44459;43.522;24.470;2022-11-25T14:46:08;100486.94;;;7.36;77.61
57572;BME280;44459;43.522;24.470;2022-11-25T14:48:34;100475.22;;;7.20;78.44
57572;BME280;44459;43.522;24.470;2022-11-25T14:51:03;100488.09;;;7.09;78.69
57572;BME280;44459;43.522;24.470;2022-11-25T14:53:37;100487.09;;;7.04;79.15
57572;BME280;44459;43.522;24.470;2022-11-25T14:56:03;100483.53;;;7.01;78.93
57572;BME280;44459;43.522;24.470;2022-11-25T14:58:29;100481.59;;;6.94;79.60